Time;durP1;ratioP1;P1;durP2;ratioP2;P2;SDS_P1;SDS_P2;PMS_P1;PMS_P2;Temp;Humidity;BMP_temperature;BMP_pressure;BME280_temperature;BME280_humidity;BME280_pressure;Samples;Min_cycle;Max_cycle;Signal;HPM_P1;HPM_P2
2023/07/11 00:02:00;;;;;;;;;3.50;3.50;;;;;33.49;24.41;100787.13;5078189;28;45485;-70
2023/07/11 00:04:25;;;;;;;;;3.25;3.25;;;;;33.50;24.83;100777.88;5058729;28;45365;-70
2023/07/11 00:06:52;;;;;;;;;4.50;4.50;;;;;33.51;24.00;100776.84;5077281;28;45541;-70
2023/07/11 00:09:19;;;;;;;;;4.75;4.75;;;;;33.51;24.04;100774.13;5059446;28;46312;-69
2023/07/11 00:11:44;;;;;;;;;5.75;5.75;;;;;33.52;24.22;100774.97;5076775;28;45186;-68
2023/07/11 00:14:11;;;;;;;;;3.25;3.25;;;;;33.54;24.40;100772.88;5077197;28;45304;-70
2023/07/11 00:16:37;;;;;;;;;3.00;3.00;;;;;33.53;24.30;100769.28;5079200;28;45570;-69
2023/07/11 00:19:03;;;;;;;;;4.00;4.00;;;;;33.46;24.73;100750.22;5077119;28;45587;-68
2023/07/11 00:21:29;;;;;;;;;6.25;6.25;;;;;33.52;24.34;100764.88;5076758;28;45247;-69
2023/07/11 00:24:03;;;;;;;;;4.00;4.00;;;;;33.44;24.63;100771.41;5077232;28;45436;-68
2023/07/11 00:26:28;;;;;;;;;5.50;5.50;;;;;33.39;24.12;100764.84;5062009;28;45552;-69
2023/07/11 00:28:54;;;;;;;;;5.25;5.25;;;;;33.38;24.85;100758.53;5079981;28;45244;-70
2023/07/11 00:31:20;;;;;;;;;2.00;2.00;;;;;33.31;24.41;100754.97;5077036;28;45616;-70
2023/07/11 00:33:45;;;;;;;;;4.50;4.50;;;;;33.32;25.10;100757.50;5058942;28;45374;-70
2023/07/11 00:36:11;;;;;;;;;4.25;4.25;;;;;33.36;24.87;100760.66;5077382;28;45366;-70
2023/07/11 00:38:36;;;;;;;;;4.75;4.75;;;;;33.33;24.90;100755.59;5077416;28;45288;-69
2023/07/11 00:41:02;;;;;;;;;3.25;3.25;;;;;33.30;25.33;100756.88;5077553;28;45367;-70
2023/07/11 00:43:27;;;;;;;;;4.00;4.00;;;;;33.20;25.35;100756.47;5078121;28;45350;-68
2023/07/11 00:46:04;;;;;;;;;2.25;2.25;;;;;33.19;25.14;100754.78;5077081;28;45522;-70
2023/07/11 00:48:34;;;;;;;;;4.00;4.00;;;;;33.16;25.08;100752.47;5076589;28;45431;-69
2023/07/11 00:51:00;;;;;;;;;4.50;4.50;;;;;33.09;25.58;100748.91;5058343;28;45458;-69
2023/07/11 00:53:26;;;;;;;;;4.25;4.25;;;;;33.10;25.37;100753.31;5058566;28;45400;-69
2023/07/11 00:55:53;;;;;;;;;7.00;7.00;;;;;33.12;25.43;100751.22;5076689;28;45605;-69
2023/07/11 00:58:21;;;;;;;;;4.50;4.50;;;;;33.10;25.12;100745.94;5076539;28;45480;-68
2023/07/11 01:00:46;;;;;;;;;5.75;5.75;;;;;32.86;24.94;100717.41;5076744;28;45213;-69
2023/07/11 01:03:11;;;;;;;;;4.25;4.25;;;;;33.01;25.67;100756.22;5076794;28;45308;-69
2023/07/11 01:05:40;;;;;;;;;6.25;6.25;;;;;33.00;25.48;100754.53;5077134;28;45516;-68
2023/07/11 01:08:07;;;;;;;;;4.75;4.75;;;;;32.95;25.68;100754.31;5076171;28;45552;-70
2023/07/11 01:10:32;;;;;;;;;4.50;4.50;;;;;32.92;25.07;100752.84;5075905;28;45486;-68
2023/07/11 01:13:00;;;;;;;;;4.50;4.50;;;;;32.96;25.38;100750.56;5076247;28;45398;-68
2023/07/11 01:15:26;;;;;;;;;4.00;4.00;;;;;32.90;25.92;100749.47;5076582;28;45339;-68
2023/07/11 01:17:51;;;;;;;;;5.00;5.00;;;;;32.81;25.72;100737.06;5076219;28;45919;-67
2023/07/11 01:20:16;;;;;;;;;5.00;5.00;;;;;32.84;25.75;100755.72;5058443;28;45259;-68
2023/07/11 01:22:43;;;;;;;;;5.25;5.25;;;;;32.78;26.15;100746.47;5076403;28;45272;-67
2023/07/11 01:25:14;;;;;;;;;8.00;7.75;;;;;32.86;25.47;100744.63;5076114;28;45558;-68
2023/07/11 01:27:43;;;;;;;;;5.00;5.00;;;;;32.82;25.98;100737.91;5057765;28;47202;-67
2023/07/11 01:30:10;;;;;;;;;5.00;5.00;;;;;32.82;26.37;100735.16;5075936;28;45399;-69
2023/07/11 01:32:37;;;;;;;;;4.75;4.75;;;;;32.76;26.08;100740.41;5075814;28;45379;-68
2023/07/11 01:35:03;;;;;;;;;5.00;5.00;;;;;32.73;25.90;100739.97;5077077;28;45620;-70
2023/07/11 01:37:29;;;;;;;;;4.25;4.25;;;;;32.70;26.38;100732.22;5076076;28;45385;-71
2023/07/11 01:39:55;;;;;;;;;6.75;6.75;;;;;32.69;26.23;100744.16;5075767;28;45443;-67
2023/07/11 01:42:20;;;;;;;;;3.50;3.50;;;;;32.68;26.39;100740.59;5076666;28;52452;-69
2023/07/11 01:44:45;;;;;;;;;5.00;5.00;;;;;32.68;26.23;100732.41;5076403;28;45481;-68
2023/07/11 01:47:11;;;;;;;;;6.75;6.75;;;;;32.68;26.53;100732.41;5076164;28;45911;-68
2023/07/11 01:49:36;;;;;;;;;7.00;7.00;;;;;32.60;26.51;100719.00;5075762;28;45245;-71
2023/07/11 01:52:13;;;;;;;;;4.50;4.50;;;;;32.70;26.61;100733.06;5076236;28;45403;-68
2023/07/11 01:54:38;;;;;;;;;8.25;8.25;;;;;32.60;26.60;100721.72;5076592;28;45208;-71
2023/07/11 01:57:04;;;;;;;;;5.75;5.75;;;;;32.69;26.37;100720.47;5076687;28;45371;-70
2023/07/11 01:59:29;;;;;;;;;6.75;6.75;;;;;32.68;26.92;100723.41;5076189;28;45365;-70
2023/07/11 02:01:55;;;;;;;;;5.00;5.00;;;;;32.69;26.33;100717.75;5059241;28;45375;-70
2023/07/11 02:04:21;;;;;;;;;6.00;6.00;;;;;32.70;26.29;100718.59;5080270;28;45254;-70
2023/07/11 02:06:50;;;;;;;;;6.00;6.00;;;;;32.72;26.65;100711.06;5079954;28;47327;-70
2023/07/11 02:09:17;;;;;;;;;6.00;6.00;;;;;32.63;26.24;100708.53;5079017;28;45277;-70
2023/07/11 02:11:42;;;;;;;;;5.00;5.00;;;;;32.65;26.84;100713.75;5079233;28;45283;-70
2023/07/11 02:14:08;;;;;;;;;7.00;7.00;;;;;32.59;26.65;100707.28;5079140;28;45221;-71
2023/07/11 02:16:33;;;;;;;;;4.50;4.50;;;;;32.54;26.99;100706.19;5078891;28;46124;-69
2023/07/11 02:18:59;;;;;;;;;4.00;4.00;;;;;32.50;26.85;100700.34;5079132;28;45232;-70
2023/07/11 02:21:24;;;;;;;;;6.25;6.25;;;;;32.54;26.70;100708.91;5079822;28;45319;-71
2023/07/11 02:23:49;;;;;;;;;5.00;5.00;;;;;32.54;26.70;100703.47;5061588;28;45492;-68
2023/07/11 02:26:15;;;;;;;;;5.75;5.75;;;;;32.52;27.10;100703.69;5079614;28;46234;-69
2023/07/11 02:28:41;;;;;;;;;6.00;6.00;;;;;32.45;27.29;100690.03;5079129;28;45402;-69
2023/07/11 02:31:06;;;;;;;;;5.50;4.75;;;;;32.45;26.79;100690.03;5078785;28;45817;-69
2023/07/11 02:33:32;;;;;;;;;8.00;8.00;;;;;32.42;27.63;100681.47;5079089;28;45299;-69
2023/07/11 02:35:57;;;;;;;;;6.50;6.50;;;;;32.42;27.26;100687.72;5060608;28;47834;-71
2023/07/11 02:38:23;;;;;;;;;9.00;9.00;;;;;32.40;27.34;100692.53;5078561;28;45321;-67
2023/07/11 02:40:48;;;;;;;;;6.00;6.00;;;;;32.38;26.98;100674.75;5078696;28;45429;-69
2023/07/11 02:43:15;;;;;;;;;4.00;4.00;;;;;32.44;27.24;100687.53;5060798;28;45483;-70
2023/07/11 02:45:40;;;;;;;;;4.50;4.50;;;;;32.37;27.26;100682.06;5079013;28;46393;-69
2023/07/11 02:48:05;;;;;;;;;5.00;5.00;;;;;32.36;27.55;100679.56;5079249;28;47086;-68
2023/07/11 02:50:31;;;;;;;;;4.75;4.75;;;;;32.37;27.56;100682.06;5078473;28;45858;-68
2023/07/11 02:52:56;;;;;;;;;5.00;5.00;;;;;32.34;27.37;100671.59;5078598;28;45629;-70
2023/07/11 02:55:21;;;;;;;;;5.75;5.75;;;;;32.31;27.36;100672.00;5077854;28;55651;-69
2023/07/11 02:57:47;;;;;;;;;6.00;6.00;;;;;32.29;27.68;100674.06;5080204;28;46473;-68
2023/07/11 03:00:12;;;;;;;;;3.25;3.25;;;;;32.30;27.53;100679.31;5080031;28;45216;-68
2023/07/11 03:02:38;;;;;;;;;4.50;4.50;;;;;32.30;27.83;100657.53;5078850;28;45517;-70
2023/07/11 03:05:03;;;;;;;;;4.50;4.50;;;;;32.30;27.64;100662.13;5078625;28;46137;-69
2023/07/11 03:07:28;;;;;;;;;4.00;4.00;;;;;32.30;27.81;100664.84;5078881;28;45357;-68
2023/07/11 03:09:54;;;;;;;;;4.75;4.75;;;;;32.20;27.72;100657.91;5078517;28;45432;-69
2023/07/11 03:12:19;;;;;;;;;3.25;3.25;;;;;32.22;27.57;100656.84;5059416;28;45583;-68
2023/07/11 03:14:47;;;;;;;;;4.25;4.25;;;;;32.20;27.72;100649.75;5077179;28;57760;-69
2023/07/11 03:17:12;;;;;;;;;3.00;3.00;;;;;32.19;27.52;100656.22;5078051;28;45375;-68
2023/07/11 03:19:38;;;;;;;;;4.00;4.00;;;;;32.20;27.85;100660.63;5077677;28;45413;-69
2023/07/11 03:22:03;;;;;;;;;6.25;6.25;;;;;32.17;28.09;100657.47;5077295;28;53567;-70
2023/07/11 03:24:28;;;;;;;;;4.75;4.75;;;;;32.14;28.04;100649.69;5059337;28;47142;-68
2023/07/11 03:26:54;;;;;;;;;5.00;5.00;;;;;32.18;27.66;100650.97;5077437;28;45261;-68
2023/07/11 03:29:19;;;;;;;;;4.00;4.00;;;;;32.19;27.91;100652.66;5077792;28;51812;-68
2023/07/11 03:31:44;;;;;;;;;5.00;5.00;;;;;32.20;28.00;100648.88;5078525;28;45174;-69
2023/07/11 03:34:10;;;;;;;;;5.00;5.00;;;;;32.09;28.36;100634.00;5077219;28;46029;-69
2023/07/11 03:36:35;;;;;;;;;5.75;5.75;;;;;32.15;27.88;100645.94;5077436;28;45349;-68
2023/07/11 03:39:01;;;;;;;;;4.50;4.50;;;;;32.13;27.67;100640.72;5077942;28;45399;-70
2023/07/11 03:41:26;;;;;;;;;4.00;4.00;;;;;32.13;28.10;100643.44;5078075;28;45505;-69
2023/07/11 03:43:51;;;;;;;;;5.25;5.25;;;;;32.12;27.94;100630.88;5078077;28;46145;-69
2023/07/11 03:46:17;;;;;;;;;13.25;13.25;;;;;32.10;27.92;100632.97;5077649;28;45323;-69
2023/07/11 03:48:42;;;;;;;;;8.50;8.50;;;;;32.05;28.63;100628.13;5077594;28;45342;-67
2023/07/11 03:51:07;;;;;;;;;6.50;6.50;;;;;32.05;28.11;100624.56;5077935;28;50150;-69
2023/07/11 03:53:32;;;;;;;;;5.50;5.50;;;;;32.03;28.29;100627.47;5076724;28;59814;-70
2023/07/11 03:55:58;;;;;;;;;5.25;5.25;;;;;32.05;28.53;100627.28;5077560;28;47263;-69
2023/07/11 03:58:24;;;;;;;;;5.50;5.50;;;;;32.02;28.83;100624.97;5077041;28;45381;-68
2023/07/11 04:00:49;;;;;;;;;4.75;4.75;;;;;32.00;28.61;100625.16;5059547;28;45527;-68
2023/07/11 04:03:14;;;;;;;;;7.75;7.25;;;;;31.97;28.62;100622.03;5076821;28;45447;-68
2023/07/11 04:05:43;;;;;;;;;5.75;5.75;;;;;31.96;29.00;100617.63;5076868;28;49570;-69
2023/07/11 04:08:08;;;;;;;;;7.00;6.25;;;;;31.91;28.67;100616.34;5077195;28;45476;-70
2023/07/11 04:10:35;;;;;;;;;7.00;7.00;;;;;31.96;28.82;100623.91;5076963;28;45569;-68
2023/07/11 04:13:00;;;;;;;;;6.25;6.25;;;;;31.87;28.72;100620.53;5077426;28;45413;-69
2023/07/11 04:15:25;;;;;;;;;8.00;8.00;;;;;31.83;28.98;100616.53;5077257;28;45251;-70
2023/07/11 04:17:51;;;;;;;;;6.25;6.25;;;;;31.84;28.84;100612.78;5077147;28;45284;-69
2023/07/11 04:20:16;;;;;;;;;7.25;7.25;;;;;31.85;28.60;100619.03;5077481;28;45324;-70
2023/07/11 04:22:41;;;;;;;;;7.00;7.00;;;;;31.81;28.66;100615.91;5075999;28;58286;-69
2023/07/11 04:25:07;;;;;;;;;9.00;9.00;;;;;31.80;28.96;100616.06;5076122;28;45383;-69
2023/07/11 04:27:32;;;;;;;;;7.25;7.25;;;;;31.79;28.69;100609.78;5076712;28;45303;-69
2023/07/11 04:29:58;;;;;;;;;6.50;6.50;;;;;31.83;28.86;100610.25;5077070;28;45181;-70
2023/07/11 04:32:23;;;;;;;;;15.75;15.75;;;;;31.81;28.93;100607.75;5076779;28;45196;-69
2023/07/11 04:34:49;;;;;;;;;7.00;7.00;;;;;31.86;29.13;100615.28;5078318;28;45277;-69
2023/07/11 04:37:15;;;;;;;;;8.00;8.00;;;;;31.90;28.62;100611.09;5076840;28;45187;-69
2023/07/11 04:39:41;;;;;;;;;8.25;8.25;;;;;31.90;28.44;100606.53;5076963;28;45492;-69
2023/07/11 04:42:06;;;;;;;;;5.75;5.75;;;;;31.91;28.89;100610.06;5077703;28;46170;-68
2023/07/11 04:44:33;;;;;;;;;8.25;8.25;;;;;31.89;28.63;100604.84;5080842;28;45277;-68
2023/07/11 04:46:58;;;;;;;;;7.75;7.75;;;;;31.87;28.50;100596.03;5077113;28;45405;-69
2023/07/11 04:49:23;;;;;;;;;6.75;6.75;;;;;31.80;29.02;100600.59;5076588;28;50061;-70
2023/07/11 04:51:50;;;;;;;;;6.75;6.75;;;;;31.75;29.38;100601.22;5076481;28;49730;-69
2023/07/11 04:54:16;;;;;;;;;6.75;6.75;;;;;31.83;29.37;100602.06;5076605;28;45301;-68
2023/07/11 04:56:41;;;;;;;;;6.75;6.75;;;;;31.84;28.92;100609.19;5078417;28;45212;-68
2023/07/11 04:59:07;;;;;;;;;6.50;6.50;;;;;31.88;28.86;100602.31;5076843;28;45571;-70
2023/07/11 05:01:32;;;;;;;;;7.50;7.50;;;;;31.96;29.06;100595.88;5076422;28;45589;-68
2023/07/11 05:03:58;;;;;;;;;9.00;9.00;;;;;32.14;29.68;100604.31;5076950;28;45287;-69
2023/07/11 05:06:23;;;;;;;;;6.00;6.00;;;;;32.44;28.97;100603.97;5076690;28;45371;-69
2023/07/11 05:08:49;;;;;;;;;6.25;5.25;;;;;32.77;29.26;100607.81;5076419;28;45323;-68
2023/07/11 05:11:16;;;;;;;;;7.00;7.00;;;;;33.10;28.55;100609.72;5076141;28;45262;-69
2023/07/11 05:13:43;;;;;;;;;8.50;8.50;;;;;33.45;28.61;100608.66;5076110;28;45421;-71
2023/07/11 05:16:13;;;;;;;;;5.50;5.50;;;;;33.86;27.43;100609.38;5076370;28;45430;-70
2023/07/11 05:18:41;;;;;;;;;9.00;7.00;;;;;34.22;27.11;100610.69;5076324;28;45385;-67
2023/07/11 05:21:09;;;;;;;;;8.00;8.00;;;;;34.51;27.27;100603.81;5076829;28;46691;-73
2023/07/11 05:23:35;;;;;;;;;5.25;5.25;;;;;34.69;26.69;100615.88;5076157;28;45383;-70
2023/07/11 05:26:01;;;;;;;;;7.00;7.00;;;;;34.90;26.42;100608.34;5076537;28;44654;-71
2023/07/11 05:28:26;;;;;;;;;6.00;6.00;;;;;35.00;26.46;100605.16;5079135;28;45412;-70
2023/07/11 05:30:53;;;;;;;;;8.00;8.00;;;;;35.22;26.60;100611.06;5079896;28;45158;-70
2023/07/11 05:33:18;;;;;;;;;8.75;8.75;;;;;35.32;26.30;100608.66;5077807;28;45263;-72
2023/07/11 05:38:27;;;;;;;;;6.00;6.00;;;;;35.63;25.97;100601.41;5076490;28;45314;-70
2023/07/11 05:40:53;;;;;;;;;7.50;7.50;;;;;35.71;25.56;100603.00;5076360;28;47017;-71
2023/07/11 05:43:18;;;;;;;;;5.25;5.25;;;;;35.76;25.67;100607.75;5075931;28;45327;-72
2023/07/11 05:45:43;;;;;;;;;7.75;7.75;;;;;35.81;25.74;100597.81;5076097;28;49710;-69
2023/07/11 05:48:09;;;;;;;;;6.50;6.50;;;;;35.84;25.59;100601.97;5076136;28;45239;-69
2023/07/11 05:50:34;;;;;;;;;6.50;6.50;;;;;35.88;25.11;100594.16;5057205;28;47054;-70
2023/07/11 05:53:00;;;;;;;;;6.75;6.75;;;;;35.92;25.27;100595.38;5075463;28;45391;-71
2023/07/11 05:55:25;;;;;;;;;8.50;8.50;;;;;35.89;25.45;100595.81;5076055;28;45478;-68
2023/07/11 05:57:51;;;;;;;;;6.75;6.75;;;;;35.86;25.26;100588.91;5075763;28;45506;-67
2023/07/11 06:00:16;;;;;;;;;4.75;4.75;;;;;35.88;25.27;100594.97;5076140;28;46240;-70
2023/07/11 06:02:41;;;;;;;;;6.50;6.50;;;;;35.77;25.21;100593.88;5075250;28;45426;-70
2023/07/11 06:05:07;;;;;;;;;8.50;8.50;;;;;35.74;25.26;100588.84;5056809;28;50730;-68
2023/07/11 06:07:34;;;;;;;;;6.00;6.00;;;;;35.70;25.21;100582.19;5075686;28;45512;-67
2023/07/11 06:09:59;;;;;;;;;8.75;8.75;;;;;35.55;25.54;100585.28;5075044;28;46290;-67
2023/07/11 06:12:25;;;;;;;;;3.50;3.50;;;;;35.39;25.20;100592.16;5075392;28;45319;-67
2023/07/11 06:14:50;;;;;;;;;3.75;3.75;;;;;35.23;25.38;100593.59;5075047;28;45359;-67
2023/07/11 06:17:16;;;;;;;;;3.50;3.50;;;;;35.02;25.74;100590.22;5075353;28;45368;-65
2023/07/11 06:19:41;;;;;;;;;4.00;4.00;;;;;34.87;25.86;100586.94;5075852;28;45926;-67
2023/07/11 06:22:07;;;;;;;;;5.25;5.25;;;;;34.75;25.99;100579.47;5075606;28;45343;-68
2023/07/11 06:24:32;;;;;;;;;4.75;4.75;;;;;34.65;26.59;100576.41;5076012;28;45344;-66
2023/07/11 06:26:58;;;;;;;;;6.00;6.00;;;;;34.55;26.32;100584.28;5060117;28;45532;-68
2023/07/11 06:29:23;;;;;;;;;5.00;5.00;;;;;34.45;26.34;100587.44;5052447;28;46139;-69
2023/07/11 06:31:49;;;;;;;;;5.75;5.75;;;;;34.36;26.40;100584.16;5053175;28;59264;-70
2023/07/11 06:34:15;;;;;;;;;5.00;5.00;;;;;34.36;26.54;100581.44;5054818;28;50684;-67
2023/07/11 06:36:40;;;;;;;;;9.75;9.75;;;;;34.30;26.23;100579.59;5054354;28;45601;-67
2023/07/11 06:39:06;;;;;;;;;5.50;5.50;;;;;34.34;26.42;100575.34;5054253;28;46447;-64
2023/07/11 06:41:32;;;;;;;;;5.00;5.00;;;;;34.33;26.39;100579.13;5054489;28;45510;-66
2023/07/11 06:43:57;;;;;;;;;3.25;3.25;;;;;34.30;26.20;100582.31;5055701;28;45325;-64
2023/07/11 06:46:22;;;;;;;;;5.00;5.00;;;;;34.27;26.78;100571.84;5055196;28;45486;-66
2023/07/11 06:48:48;;;;;;;;;4.25;4.25;;;;;34.28;26.63;100573.50;5057279;28;45497;-68
2023/07/11 06:51:13;;;;;;;;;3.00;3.00;;;;;34.30;26.78;100574.94;5058801;28;45397;-67
2023/07/11 06:53:38;;;;;;;;;6.75;6.75;;;;;34.28;26.63;100576.22;5057821;28;45349;-67
2023/07/11 06:56:04;;;;;;;;;5.75;5.75;;;;;34.37;26.49;100580.38;5056315;28;45411;-68
2023/07/11 06:58:30;;;;;;;;;4.00;4.00;;;;;34.41;26.46;100575.28;5057876;28;45251;-67
2023/07/11 07:01:05;;;;;;;;;4.75;4.75;;;;;34.44;26.57;100570.25;5037749;28;45422;-68
2023/07/11 07:03:32;;;;;;;;;6.25;6.25;;;;;34.44;26.38;100570.25;5055895;28;45375;-66
2023/07/11 07:06:02;;;;;;;;;5.00;5.00;;;;;34.47;26.67;100563.56;5059461;28;45183;-66
2023/07/11 07:08:27;;;;;;;;;6.25;6.25;;;;;34.58;26.55;100565.56;5057980;28;45406;-65
2023/07/11 07:10:53;;;;;;;;;6.75;6.75;;;;;34.68;26.24;100556.84;5057417;28;45427;-65
2023/07/11 07:13:21;;;;;;;;;4.75;4.75;;;;;34.85;26.07;100570.78;5056776;28;45450;-66
2023/07/11 07:15:51;;;;;;;;;4.25;4.25;;;;;34.89;26.21;100568.44;5057351;28;45320;-67
2023/07/11 07:18:17;;;;;;;;;5.00;5.00;;;;;34.89;26.30;100561.09;5057170;28;46542;-68
2023/07/11 07:20:44;;;;;;;;;5.50;5.50;;;;;34.93;26.16;100567.78;5057132;28;45422;-69
2023/07/11 07:23:09;;;;;;;;;5.25;5.25;;;;;34.80;26.20;100529.66;5039346;28;45589;-66
2023/07/11 07:25:36;;;;;;;;;3.00;3.00;;;;;35.12;25.99;100558.81;5057808;28;45475;-70
2023/07/11 07:28:01;;;;;;;;;7.50;7.50;;;;;35.23;26.05;100558.06;5058307;28;46177;-66
2023/07/11 07:30:27;;;;;;;;;5.25;5.25;;;;;35.26;25.84;100549.41;5057306;28;44724;-68
2023/07/11 07:32:52;;;;;;;;;5.00;5.00;;;;;35.41;25.76;100556.41;5057000;28;45488;-67
2023/07/11 07:35:17;;;;;;;;;3.75;3.75;;;;;35.48;25.64;100557.16;5057059;28;45460;-67
2023/07/11 07:37:43;;;;;;;;;4.75;4.75;;;;;35.54;25.36;100556.28;5038793;28;47328;-67
2023/07/11 07:40:08;;;;;;;;;4.25;4.25;;;;;35.60;25.63;100549.88;5056564;28;54302;-66
2023/07/11 07:42:34;;;;;;;;;6.00;6.00;;;;;35.66;25.38;100546.22;5056612;28;45290;-68
2023/07/11 07:44:59;;;;;;;;;4.25;4.25;;;;;35.77;25.30;100543.78;5057537;28;45554;-67
2023/07/11 07:47:24;;;;;;;;;5.25;5.25;;;;;35.83;25.32;100542.84;5051569;28;54557;-70
2023/07/11 07:49:49;;;;;;;;;5.00;5.00;;;;;35.91;25.01;100544.44;5057212;28;45372;-68
2023/07/11 07:52:15;;;;;;;;;5.50;5.50;;;;;35.92;25.11;100541.47;5057671;28;45344;-68
2023/07/11 07:54:40;;;;;;;;;4.50;4.50;;;;;35.95;25.15;100535.53;5056906;28;45550;-67
2023/07/11 07:57:06;;;;;;;;;4.00;4.00;;;;;36.09;25.40;100533.47;5056936;28;45478;-66
2023/07/11 07:59:31;;;;;;;;;4.25;4.25;;;;;36.25;25.25;100536.59;5056293;28;45386;-68
2023/07/11 08:01:57;;;;;;;;;5.00;5.00;;;;;36.26;24.96;100533.66;5058690;28;45344;-69
2023/07/11 08:04:23;;;;;;;;;5.00;4.25;;;;;36.43;24.91;100535.69;5058709;28;45540;-69
2023/07/11 08:06:48;;;;;;;;;5.75;5.75;;;;;36.51;24.69;100540.84;5056777;28;46184;-69
2023/07/11 08:09:14;;;;;;;;;6.00;6.00;;;;;36.55;25.02;100539.31;5056871;28;45304;-70
2023/07/11 08:11:43;;;;;;;;;6.50;6.50;;;;;36.71;24.72;100531.47;5056860;28;45410;-67
2023/07/11 08:14:08;;;;;;;;;3.75;3.75;;;;;36.79;24.73;100530.28;5056385;28;45320;-69
2023/07/11 08:16:34;;;;;;;;;6.25;6.25;;;;;36.84;24.29;100524.91;5056276;28;56570;-69
2023/07/11 08:19:04;;;;;;;;;4.50;4.50;;;;;36.83;24.55;100518.59;5056302;28;49218;-68
2023/07/11 08:21:29;;;;;;;;;4.50;4.50;;;;;36.76;24.63;100520.63;5056695;28;45391;-68
2023/07/11 08:23:55;;;;;;;;;3.25;3.25;;;;;36.73;24.72;100515.63;5056419;28;45245;-69
2023/07/11 08:26:22;;;;;;;;;7.25;7.00;;;;;36.81;24.72;100506.22;5037974;28;46769;-67
2023/07/11 08:28:47;;;;;;;;;6.25;6.25;;;;;37.03;24.43;100516.59;5056169;28;45331;-66
2023/07/11 08:31:12;;;;;;;;;6.00;6.00;;;;;37.08;24.71;100494.78;5057097;28;45358;-66
2023/07/11 08:33:38;;;;;;;;;5.00;5.00;;;;;37.11;24.72;100491.56;5056109;28;46296;-68
2023/07/11 08:36:03;;;;;;;;;4.00;4.00;;;;;37.24;23.89;100495.94;5056236;28;46135;-70
2023/07/11 08:38:29;;;;;;;;;5.25;5.25;;;;;37.36;24.23;100499.50;5056039;28;45238;-66
2023/07/11 08:40:55;;;;;;;;;5.75;5.00;;;;;37.52;23.71;100505.31;5055089;28;60139;-66
2023/07/11 08:43:28;;;;;;;;;7.00;7.00;;;;;37.69;24.08;100503.44;5055724;28;45386;-66
2023/07/11 08:46:05;;;;;;;;;7.00;7.00;;;;;37.77;24.02;100504.13;5055784;28;45410;-67
2023/07/11 08:48:44;;;;;;;;;9.00;9.00;;;;;37.86;23.66;100499.91;5055503;28;45408;-67
2023/07/11 08:51:22;;;;;;;;;4.50;4.50;;;;;38.02;23.67;100490.09;5055914;28;45304;-66
2023/07/11 08:53:53;;;;;;;;;5.50;5.50;;;;;38.22;23.63;100506.09;5056998;28;45323;-69
2023/07/11 08:56:40;;;;;;;;;6.75;6.75;;;;;38.37;23.18;100501.91;5055700;28;46163;-68
2023/07/11 08:59:10;;;;;;;;;5.00;5.00;;;;;38.37;23.39;100490.94;5056178;28;45229;-66
2023/07/11 09:01:50;;;;;;;;;6.00;6.00;;;;;38.43;23.36;100477.03;5056199;28;45380;-68
2023/07/11 09:04:20;;;;;;;;;5.00;5.00;;;;;38.34;23.38;100484.00;5037952;28;45308;-69
2023/07/11 09:06:54;;;;;;;;;7.25;7.25;;;;;38.28;23.24;100474.88;5056119;28;45400;-67
2023/07/11 09:09:20;;;;;;;;;5.75;5.75;;;;;38.45;23.13;100485.06;5056654;28;45260;-66
2023/07/11 09:12:00;;;;;;;;;2.00;2.00;;;;;38.45;23.41;100471.31;5056342;28;45361;-68
2023/07/11 09:15:03;;;;;;;;;5.75;5.75;;;;;38.52;23.17;100468.38;5057297;28;45215;-66
2023/07/11 09:17:52;;;;;;;;;5.00;5.00;;;;;38.74;22.84;100465.69;5056188;28;46190;-66
2023/07/11 09:20:40;;;;;;;;;7.00;7.00;;;;;39.03;23.02;100468.28;5057775;28;45234;-66
2023/07/11 09:23:09;;;;;;;;;7.00;7.00;;;;;39.21;22.96;100461.66;5056782;28;45455;-69
2023/07/11 09:25:39;;;;;;;;;4.50;4.50;;;;;39.35;22.76;100464.88;5055982;28;45261;-65
2023/07/11 09:28:23;;;;;;;;;7.00;7.00;;;;;39.34;22.63;100460.47;5037515;28;45956;-66
2023/07/11 09:31:01;;;;;;;;;5.25;5.25;;;;;39.43;22.50;100456.16;5055460;28;45400;-66
2023/07/11 09:33:26;;;;;;;;;7.00;7.00;;;;;39.48;22.62;100460.88;5055477;28;45535;-67
2023/07/11 09:35:52;;;;;;;;;7.00;7.00;;;;;39.58;22.27;100463.72;5055730;28;45436;-69
2023/07/11 09:38:35;;;;;;;;;8.00;8.00;;;;;39.66;22.43;100456.94;5055595;28;46436;-69
2023/07/11 09:41:15;;;;;;;;;8.00;8.00;;;;;39.74;22.20;100456.47;5054733;28;45464;-70
2023/07/11 09:43:41;;;;;;;;;6.75;6.00;;;;;39.82;22.36;100446.09;5035547;28;45419;-67
2023/07/11 09:46:20;;;;;;;;;6.75;6.75;;;;;39.83;22.50;100445.88;5035618;28;45514;-68
2023/07/11 09:48:50;;;;;;;;;7.00;7.00;;;;;39.86;22.28;100437.06;5034765;28;46519;-68
2023/07/11 09:51:30;;;;;;;;;8.00;8.00;;;;;40.02;22.35;100440.78;5035101;28;45384;-67
2023/07/11 09:53:55;;;;;;;;;8.00;8.00;;;;;40.14;22.01;100434.25;5035247;28;45292;-68
2023/07/11 09:56:22;;;;;;;;;8.25;8.25;;;;;40.26;21.98;100437.66;5035285;28;45602;-68
2023/07/11 09:58:53;;;;;;;;;7.00;7.00;;;;;40.26;21.62;100431.34;5035151;28;45498;-66
2023/07/11 10:01:24;;;;;;;;;19.50;19.50;;;;;40.33;21.51;100436.66;5017033;28;45660;-66
2023/07/11 10:03:53;;;;;;;;;20.50;20.50;;;;;40.48;21.60;100433.97;5035054;28;45403;-68
2023/07/11 10:06:30;;;;;;;;;8.75;8.75;;;;;40.57;21.38;100431.53;5035132;28;45220;-67
2023/07/11 10:08:55;;;;;;;;;10.50;9.00;;;;;40.53;21.53;100423.00;5034675;28;45376;-67
2023/07/11 10:11:22;;;;;;;;;8.00;8.00;;;;;40.55;21.38;100420.78;5034439;28;45308;-67
2023/07/11 10:13:55;;;;;;;;;11.75;11.25;;;;;40.46;21.00;100414.13;5034830;28;45748;-69
2023/07/11 10:16:20;;;;;;;;;7.75;7.75;;;;;40.43;20.96;100409.16;5035035;28;45438;-68
2023/07/11 10:18:46;;;;;;;;;8.00;8.00;;;;;40.44;21.06;100405.31;5016757;28;46069;-67
2023/07/11 10:21:27;;;;;;;;;8.00;8.00;;;;;40.51;20.80;100396.78;5034702;28;45282;-69
2023/07/11 10:23:53;;;;;;;;;6.75;6.75;;;;;40.65;21.39;100402.66;5037313;28;45480;-67
2023/07/11 10:26:23;;;;;;;;;9.00;9.00;;;;;40.75;20.95;100403.53;5038061;28;45427;-68
2023/07/11 10:28:58;;;;;;;;;10.00;10.00;;;;;40.90;21.31;100393.69;5019575;28;47733;-67
2023/07/11 10:31:32;;;;;;;;;6.75;6.75;;;;;40.91;20.53;100389.84;5019800;28;45459;-69
2023/07/11 10:34:04;;;;;;;;;6.25;6.25;;;;;40.93;20.99;100390.41;5020050;28;45491;-69
2023/07/11 10:36:46;;;;;;;;;11.50;11.50;;;;;40.82;20.66;100389.53;5038114;28;45407;-69
2023/07/11 10:39:43;;;;;;;;;8.50;8.50;;;;;40.96;20.75;100381.59;5038214;28;45437;-70
2023/07/11 10:42:14;;;;;;;;;6.25;6.25;;;;;40.95;21.20;100365.28;5005635;28;45302;-68
2023/07/11 10:44:45;;;;;;;;;5.25;5.25;;;;;41.06;20.67;100389.03;5039804;28;45398;-69
2023/07/11 10:47:11;;;;;;;;;12.25;12.25;;;;;41.08;20.48;100380.50;5058602;28;45393;-69
2023/07/11 10:49:48;;;;;;;;;6.50;6.50;;;;;41.09;20.71;100377.47;5039895;28;45396;-69
2023/07/11 10:52:24;;;;;;;;;6.25;6.00;;;;;41.10;20.33;100375.56;5058727;28;45346;-66
2023/07/11 10:55:17;;;;;;;;;7.50;7.50;;;;;41.15;20.11;100370.88;5057951;28;45352;-66
2023/07/11 10:57:50;;;;;;;;;6.50;6.50;;;;;41.15;20.70;100368.13;5048316;28;45414;-66
2023/07/11 11:00:18;;;;;;;;;5.00;5.00;;;;;41.25;20.08;100366.50;5039373;28;47178;-67
2023/07/11 11:02:53;;;;;;;;;12.25;12.25;;;;;41.29;20.23;100354.66;5057692;28;45331;-69
2023/07/11 11:05:24;;;;;;;;;7.75;7.75;;;;;41.57;20.33;100340.63;5057542;28;45370;-68
2023/07/11 11:08:17;;;;;;;;;6.50;6.50;;;;;41.78;20.18;100346.13;5058238;28;45500;-69
2023/07/11 11:10:55;;;;;;;;;8.50;8.00;;;;;41.83;19.76;100337.84;5057678;28;46951;-68
2023/07/11 11:13:38;;;;;;;;;5.50;5.50;;;;;42.02;19.83;100333.44;5057347;28;45360;-69
2023/07/11 11:16:16;;;;;;;;;8.00;8.00;;;;;42.09;19.62;100333.16;5039223;28;45312;-69
2023/07/11 11:19:09;;;;;;;;;7.75;7.75;;;;;42.17;19.78;100328.97;5059558;28;45383;-67
2023/07/11 11:22:03;;;;;;;;;7.75;7.75;;;;;42.24;19.66;100325.91;5057392;28;45743;-67
2023/07/11 11:24:46;;;;;;;;;6.75;6.75;;;;;42.38;19.59;100329.72;5057487;28;45230;-67
2023/07/11 11:27:44;;;;;;;;;7.75;7.75;;;;;42.60;19.18;100318.34;5057808;28;45285;-67
2023/07/11 11:30:12;;;;;;;;;6.00;6.00;;;;;42.81;18.92;100320.16;5057753;28;45277;-69
2023/07/11 11:33:03;;;;;;;;;6.75;6.75;;;;;43.00;18.79;100312.06;5057084;28;45301;-70